Moreno Valley, CA (92554)

4:57 PM PDT on August 03, 2015 (GMT -0700)
Moreno Valley | | Change Station
CLOSE
Current Station
Personal Weather Station
Location: Moreno Valley, CA
Elevation: 1572 ft
Nearby Weather Stations

Elev 1572 ft 33.91 °N, 117.24 °W | Updated 9 seconds ago

Clear
Clear
90.6 °F
Feels Like 88 °F
N
8.0
Wind Variable Wind from WNW
Gusts 11.0 mph

Today
High -- | Low -- °F
--% Chance of Precip.
Yesterday
High -- | Low -- °F
Precip. -- in
6:01 AM 7:47 PM
Waning Gibbous, 83% visible
Pressure 29.84 in
Visibility 10.0 miles
Clouds Clear
Heat Index 88 °F
Dew Point 54 °F
Humidity 29%
Rainfall 0.00 in
Snow Depth Not available.
UV 7 out of 12
Pollen 4.20 out of 12
Air Quality Not available.
Flu Activity Not available.
METAR KRIV 032258Z AUTO 32013KT 10SM CLR 33/12 A2988 RMK AO2 SLP104 T03310124

More Conditions Fewer Conditions

Pressure 29.84 in
Visibility 10.0 miles
Clouds Clear
Heat Index 88 °F
Dew Point 54 °F
Humidity 29%
Rainfall 0.00 in
Snow Depth Not available.
UV 7 out of 12
Pollen 4.20 out of 12
Air Quality Not available.
Flu Activity Not available.
METAR KRIV 032258Z AUTO 32013KT 10SM CLR 33/12 A2988 RMK AO2 SLP104 T03310124

More Conditions Fewer Conditions

10-Day Weather Forecast

×

Almanac

Astronomy

Aug. 03, 2015 Rise Set
Actual Time
Civil Twilight
Nautical Twilight
Astronomical Twilight
Moon
Length of Visible Light
Length of Day
Tomorrow will be .
, % of the Moon is Illuminated

Today's Extremes

State Highs State Lows

Community

WunderPhotos

Upload Photos

1,843,791 photos uploaded!

WunderBlogs® & News

Nearby

Air Quality

  Air Quality AQ Index Pollutant
Not available.

Snow Depth

Station Depth Elevation

Earthquake Activity

City Distance Mag. Time & Date
Minimum magnitude displayed is 2.5.

Coastal Water Temperatures

Place Temperature

Stations

Nearby Weather Stations

Station Location Temp. Windchill Dew Point Humidity Wind Precip. Elev Updated Type